sensor_id;sensor_type;location;lat;lon;timestamp;temperature;humidity
316;DHT22;14128;48.686;9.738;2022-09-03T14:32:43;19.10;1.40
316;DHT22;14128;48.686;9.738;2022-09-03T14:35:32;21.90;1.40
316;DHT22;14128;48.686;9.738;2022-09-03T14:38:33;21.70;1.40
316;DHT22;14128;48.686;9.738;2022-09-03T14:41:14;21.30;1.40
316;DHT22;14128;48.686;9.738;2022-09-03T14:44:04;22.00;1.40
316;DHT22;14128;48.686;9.738;2022-09-03T14:46:45;23.30;1.40
316;DHT22;14128;48.686;9.738;2022-09-03T14:49:47;23.90;1.40
316;DHT22;14128;48.686;9.738;2022-09-03T14:52:29;25.20;99.90
316;DHT22;14128;48.686;9.738;2022-09-03T14:55:14;28.80;50.40
316;DHT22;14128;48.686;9.738;2022-09-03T14:58:02;29.30;99.90
316;DHT22;14128;48.686;9.738;2022-09-03T15:00:40;31.20;1.00
316;DHT22;14128;48.686;9.738;2022-09-03T15:03:34;32.40;99.90
316;DHT22;14128;48.686;9.738;2022-09-03T15:06:16;32.60;99.90
316;DHT22;14128;48.686;9.738;2022-09-03T15:08:56;30.60;1.40
316;DHT22;14128;48.686;9.738;2022-09-03T15:11:29;32.00;1.40
316;DHT22;14128;48.686;9.738;2022-09-03T15:14:03;33.10;1.40
316;DHT22;14128;48.686;9.738;2022-09-03T15:16:44;33.50;1.40
316;DHT22;14128;48.686;9.738;2022-09-03T15:19:25;33.60;1.40
316;DHT22;14128;48.686;9.738;2022-09-03T15:22:06;33.50;1.40
316;DHT22;14128;48.686;9.738;2022-09-03T15:24:46;33.30;1.40
316;DHT22;14128;48.686;9.738;2022-09-03T15:27:33;32.60;1.40
316;DHT22;14128;48.686;9.738;2022-09-03T15:30:07;32.60;1.40
316;DHT22;14128;48.686;9.738;2022-09-03T15:32:50;33.50;1.40
316;DHT22;14128;48.686;9.738;2022-09-03T15:35:39;32.20;1.40
316;DHT22;14128;48.686;9.738;2022-09-03T15:38:19;33.10;1.40
316;DHT22;14128;48.686;9.738;2022-09-03T15:40:51;32.50;1.40
316;DHT22;14128;48.686;9.738;2022-09-03T15:43:22;32.60;1.40
316;DHT22;14128;48.686;9.738;2022-09-03T15:45:53;33.30;1.40
316;DHT22;14128;48.686;9.738;2022-09-03T15:48:32;34.10;1.40
316;DHT22;14128;48.686;9.738;2022-09-03T15:51:19;35.20;1.40
316;DHT22;14128;48.686;9.738;2022-09-03T15:53:52;36.10;1.40
316;DHT22;14128;48.686;9.738;2022-09-03T15:56:27;36.60;1.40
316;DHT22;14128;48.686;9.738;2022-09-03T15:58:59;36.90;1.40
316;DHT22;14128;48.686;9.738;2022-09-03T16:01:36;37.20;1.40
316;DHT22;14128;48.686;9.738;2022-09-03T16:04:16;37.10;1.40
316;DHT22;14128;48.686;9.738;2022-09-03T16:06:55;37.10;1.40
316;DHT22;14128;48.686;9.738;2022-09-03T16:09:34;37.20;1.40
316;DHT22;14128;48.686;9.738;2022-09-03T16:12:09;37.20;1.40
316;DHT22;14128;48.686;9.738;2022-09-03T16:14:43;36.70;1.40
316;DHT22;14128;48.686;9.738;2022-09-03T16:17:20;36.30;1.40
316;DHT22;14128;48.686;9.738;2022-09-03T16:19:53;35.80;1.40
316;DHT22;14128;48.686;9.738;2022-09-03T16:22:26;34.40;1.40
316;DHT22;14128;48.686;9.738;2022-09-03T16:24:59;34.10;1.40
316;DHT22;14128;48.686;9.738;2022-09-03T16:27:31;33.30;1.40
316;DHT22;14128;48.686;9.738;2022-09-03T16:30:08;33.60;1.40
316;DHT22;14128;48.686;9.738;2022-09-03T16:32:50;33.50;1.40
316;DHT22;14128;48.686;9.738;2022-09-03T16:35:26;30.10;1.40
316;DHT22;14128;48.686;9.738;2022-09-03T16:38:23;29.40;1.40
316;DHT22;14128;48.686;9.738;2022-09-03T16:40:57;28.00;1.40
316;DHT22;14128;48.686;9.738;2022-09-03T16:43:32;26.50;1.40
316;DHT22;14128;48.686;9.738;2022-09-03T16:46:15;25.80;1.40
316;DHT22;14128;48.686;9.738;2022-09-03T16:48:52;25.90;1.40
316;DHT22;14128;48.686;9.738;2022-09-03T16:51:26;25.70;1.40
316;DHT22;14128;48.686;9.738;2022-09-03T16:54:09;24.50;1.40
316;DHT22;14128;48.686;9.738;2022-09-03T16:56:52;23.50;1.40
316;DHT22;14128;48.686;9.738;2022-09-03T16:59:45;22.80;1.40
316;DHT22;14128;48.686;9.738;2022-09-03T17:02:33;22.20;1.40
316;DHT22;14128;48.686;9.738;2022-09-03T17:08:01;21.30;1.40
316;DHT22;14128;48.686;9.738;2022-09-03T17:10:38;20.90;1.40
316;DHT22;14128;48.686;9.738;2022-09-03T17:13:28;20.70;1.40
316;DHT22;14128;48.686;9.738;2022-09-03T17:16:00;20.40;1.40
316;DHT22;14128;48.686;9.738;2022-09-03T17:18:40;20.20;1.40
316;DHT22;14128;48.686;9.738;2022-09-03T17:21:25;20.00;1.40
316;DHT22;14128;48.686;9.738;2022-09-03T17:24:16;19.70;1.40
316;DHT22;14128;48.686;9.738;2022-09-03T17:26:52;19.40;1.40
316;DHT22;14128;48.686;9.738;2022-09-03T17:29:40;19.30;1.40
316;DHT22;14128;48.686;9.738;2022-09-03T17:32:21;19.20;1.40
316;DHT22;14128;48.686;9.738;2022-09-03T17:35:03;19.00;1.40
316;DHT22;14128;48.686;9.738;2022-09-03T17:37:43;18.90;1.40
316;DHT22;14128;48.686;9.738;2022-09-03T17:40:25;18.80;1.40
316;DHT22;14128;48.686;9.738;2022-09-03T17:42:58;18.60;1.40
316;DHT22;14128;48.686;9.738;2022-09-03T17:45:38;18.40;1.40
316;DHT22;14128;48.686;9.738;2022-09-03T17:48:42;18.20;1.40
316;DHT22;14128;48.686;9.738;2022-09-03T17:51:23;18.00;1.40
316;DHT22;14128;48.686;9.738;2022-09-03T17:53:54;17.90;1.40
316;DHT22;14128;48.686;9.738;2022-09-03T17:56:26;17.80;1.40
316;DHT22;14128;48.686;9.738;2022-09-03T17:59:03;17.60;1.40
316;DHT22;14128;48.686;9.738;2022-09-03T18:01:35;17.50;1.40
316;DHT22;14128;48.686;9.738;2022-09-03T18:04:14;17.30;1.40
316;DHT22;14128;48.686;9.738;2022-09-03T18:06:51;17.20;1.40
316;DHT22;14128;48.686;9.738;2022-09-03T18:09:23;17.10;1.40
316;DHT22;14128;48.686;9.738;2022-09-03T18:12:02;17.10;1.40
316;DHT22;14128;48.686;9.738;2022-09-03T18:14:33;16.90;1.40
316;DHT22;14128;48.686;9.738;2022-09-03T18:17:04;16.80;1.40
316;DHT22;14128;48.686;9.738;2022-09-03T18:19:35;16.60;1.40
316;DHT22;14128;48.686;9.738;2022-09-03T18:22:24;16.50;1.40
316;DHT22;14128;48.686;9.738;2022-09-03T18:25:13;16.40;1.40
316;DHT22;14128;48.686;9.738;2022-09-03T18:28:02;16.30;1.40
316;DHT22;14128;48.686;9.738;2022-09-03T18:30:47;16.20;1.40
316;DHT22;14128;48.686;9.738;2022-09-03T18:33:32;16.10;1.40
316;DHT22;14128;48.686;9.738;2022-09-03T18:36:17;16.10;1.40
316;DHT22;14128;48.686;9.738;2022-09-03T18:39:06;16.10;1.40
316;DHT22;14128;48.686;9.738;2022-09-03T18:42:00;16.10;1.40
316;DHT22;14128;48.686;9.738;2022-09-03T18:44:58;16.00;1.40
316;DHT22;14128;48.686;9.738;2022-09-03T18:47:54;16.10;1.40
316;DHT22;14128;48.686;9.738;2022-09-03T18:50:51;16.10;1.40
316;DHT22;14128;48.686;9.738;2022-09-03T18:53:44;16.10;1.40
316;DHT22;14128;48.686;9.738;2022-09-03T18:56:39;16.10;1.40
316;DHT22;14128;48.686;9.738;2022-09-03T19:02:50;16.00;1.40
316;DHT22;14128;48.686;9.738;2022-09-03T19:05:44;15.90;1.40
316;DHT22;14128;48.686;9.738;2022-09-03T19:08:38;15.90;1.40
316;DHT22;14128;48.686;9.738;2022-09-03T19:11:28;15.80;1.40
316;DHT22;14128;48.686;9.738;2022-09-03T19:14:23;15.70;1.40
316;DHT22;14128;48.686;9.738;2022-09-03T19:17:14;15.60;1.40
316;DHT22;14128;48.686;9.738;2022-09-03T19:20:05;15.50;1.40
316;DHT22;14128;48.686;9.738;2022-09-03T19:22:51;15.40;1.40
316;DHT22;14128;48.686;9.738;2022-09-03T19:25:37;15.40;1.40
316;DHT22;14128;48.686;9.738;2022-09-03T19:28:23;15.30;1.40
316;DHT22;14128;48.686;9.738;2022-09-03T19:31:24;15.30;1.40
316;DHT22;14128;48.686;9.738;2022-09-03T19:34:23;15.20;1.40
316;DHT22;14128;48.686;9.738;2022-09-03T19:37:16;15.20;1.40
316;DHT22;14128;48.686;9.738;2022-09-03T19:40:16;15.10;1.40
316;DHT22;14128;48.686;9.738;2022-09-03T19:43:18;15.00;1.40
316;DHT22;14128;48.686;9.738;2022-09-03T19:46:13;15.00;1.40
316;DHT22;14128;48.686;9.738;2022-09-03T19:49:10;15.00;1.40
316;DHT22;14128;48.686;9.738;2022-09-03T19:52:05;14.90;1.40
316;DHT22;14128;48.686;9.738;2022-09-03T19:54:53;14.90;1.40
316;DHT22;14128;48.686;9.738;2022-09-03T19:57:40;14.80;1.40
316;DHT22;14128;48.686;9.738;2022-09-03T20:00:27;14.80;1.40
316;DHT22;14128;48.686;9.738;2022-09-03T20:03:13;14.80;1.40
316;DHT22;14128;48.686;9.738;2022-09-03T20:05:59;14.80;1.40
316;DHT22;14128;48.686;9.738;2022-09-03T20:08:45;14.70;1.40
316;DHT22;14128;48.686;9.738;2022-09-03T20:11:30;14.80;1.40
316;DHT22;14128;48.686;9.738;2022-09-03T20:13:58;14.70;1.40
316;DHT22;14128;48.686;9.738;2022-09-03T20:16:50;14.70;1.40
316;DHT22;14128;48.686;9.738;2022-09-03T20:19:26;14.60;1.40
316;DHT22;14128;48.686;9.738;2022-09-03T20:22:00;14.60;1.40
316;DHT22;14128;48.686;9.738;2022-09-03T20:24:35;14.50;1.40
316;DHT22;14128;48.686;9.738;2022-09-03T20:27:13;14.50;1.40
316;DHT22;14128;48.686;9.738;2022-09-03T20:29:57;14.40;1.40
316;DHT22;14128;48.686;9.738;2022-09-03T20:32:55;14.40;1.40
316;DHT22;14128;48.686;9.738;2022-09-03T20:35:32;14.40;1.40
316;DHT22;14128;48.686;9.738;2022-09-03T20:38:11;14.30;1.40
316;DHT22;14128;48.686;9.738;2022-09-03T20:40:45;14.40;1.40
316;DHT22;14128;48.686;9.738;2022-09-03T20:43:30;14.40;1.40
316;DHT22;14128;48.686;9.738;2022-09-03T20:46:11;14.50;1.40
316;DHT22;14128;48.686;9.738;2022-09-03T20:48:49;14.60;1.40
316;DHT22;14128;48.686;9.738;2022-09-03T20:51:24;14.60;1.40
316;DHT22;14128;48.686;9.738;2022-09-03T20:54:04;14.80;1.40
316;DHT22;14128;48.686;9.738;2022-09-03T20:56:44;14.90;1.40
316;DHT22;14128;48.686;9.738;2022-09-03T20:59:17;15.00;1.40
316;DHT22;14128;48.686;9.738;2022-09-03T21:01:52;15.00;1.40
316;DHT22;14128;48.686;9.738;2022-09-03T21:04:34;15.10;1.40
316;DHT22;14128;48.686;9.738;2022-09-03T21:07:10;15.10;1.40
316;DHT22;14128;48.686;9.738;2022-09-03T21:09:44;15.20;1.40
316;DHT22;14128;48.686;9.738;2022-09-03T21:12:21;15.20;1.40
316;DHT22;14128;48.686;9.738;2022-09-03T21:14:56;15.20;1.40
316;DHT22;14128;48.686;9.738;2022-09-03T21:17:33;15.20;1.40
316;DHT22;14128;48.686;9.738;2022-09-03T21:20:16;15.20;1.40
316;DHT22;14128;48.686;9.738;2022-09-03T21:22:51;15.10;1.40
316;DHT22;14128;48.686;9.738;2022-09-03T21:25:23;15.10;1.40
316;DHT22;14128;48.686;9.738;2022-09-03T21:27:54;15.10;1.40
316;DHT22;14128;48.686;9.738;2022-09-03T21:30:22;15.10;1.40
316;DHT22;14128;48.686;9.738;2022-09-03T21:32:51;15.00;1.40
316;DHT22;14128;48.686;9.738;2022-09-03T21:35:25;15.00;1.40
316;DHT22;14128;48.686;9.738;2022-09-03T21:37:56;15.00;1.40
316;DHT22;14128;48.686;9.738;2022-09-03T21:40:26;14.90;1.40
316;DHT22;14128;48.686;9.738;2022-09-03T21:42:59;14.80;1.40
316;DHT22;14128;48.686;9.738;2022-09-03T21:45:34;14.80;1.40
316;DHT22;14128;48.686;9.738;2022-09-03T21:48:06;14.70;1.40
316;DHT22;14128;48.686;9.738;2022-09-03T21:50:44;14.70;1.40
316;DHT22;14128;48.686;9.738;2022-09-03T21:53:19;14.60;1.40
316;DHT22;14128;48.686;9.738;2022-09-03T21:56:07;14.60;1.40
316;DHT22;14128;48.686;9.738;2022-09-03T21:58:50;14.60;1.40
316;DHT22;14128;48.686;9.738;2022-09-03T22:01:25;14.60;1.40
316;DHT22;14128;48.686;9.738;2022-09-03T22:03:56;14.60;1.40
316;DHT22;14128;48.686;9.738;2022-09-03T22:06:29;14.60;1.40
316;DHT22;14128;48.686;9.738;2022-09-03T22:09:06;14.60;1.40
316;DHT22;14128;48.686;9.738;2022-09-03T22:11:39;14.60;1.40
316;DHT22;14128;48.686;9.738;2022-09-03T22:14:12;14.60;1.40
316;DHT22;14128;48.686;9.738;2022-09-03T22:16:46;14.60;1.40
316;DHT22;14128;48.686;9.738;2022-09-03T22:19:16;14.60;1.40
316;DHT22;14128;48.686;9.738;2022-09-03T22:21:49;14.60;1.40
316;DHT22;14128;48.686;9.738;2022-09-03T22:24:31;14.70;1.40
316;DHT22;14128;48.686;9.738;2022-09-03T22:27:03;14.70;1.40
316;DHT22;14128;48.686;9.738;2022-09-03T22:29:39;14.70;1.40
316;DHT22;14128;48.686;9.738;2022-09-03T22:32:20;14.70;1.40
316;DHT22;14128;48.686;9.738;2022-09-03T22:35:06;14.80;1.40
316;DHT22;14128;48.686;9.738;2022-09-03T22:37:49;14.70;1.40
316;DHT22;14128;48.686;9.738;2022-09-03T22:40:20;14.70;1.40
316;DHT22;14128;48.686;9.738;2022-09-03T22:43:04;14.70;1.40
316;DHT22;14128;48.686;9.738;2022-09-03T22:45:42;14.70;1.40
316;DHT22;14128;48.686;9.738;2022-09-03T22:48:20;14.70;1.40
316;DHT22;14128;48.686;9.738;2022-09-03T22:50:54;14.80;1.40
316;DHT22;14128;48.686;9.738;2022-09-03T22:53:33;14.80;1.40
316;DHT22;14128;48.686;9.738;2022-09-03T22:56:06;14.90;1.40
316;DHT22;14128;48.686;9.738;2022-09-03T22:58:40;14.90;1.40
316;DHT22;14128;48.686;9.738;2022-09-03T23:01:12;15.00;1.40
316;DHT22;14128;48.686;9.738;2022-09-03T23:03:46;15.10;1.40
316;DHT22;14128;48.686;9.738;2022-09-03T23:06:21;15.10;1.40
316;DHT22;14128;48.686;9.738;2022-09-03T23:08:58;15.20;1.40
316;DHT22;14128;48.686;9.738;2022-09-03T23:11:28;15.20;1.40
316;DHT22;14128;48.686;9.738;2022-09-03T23:14:01;15.30;1.40
316;DHT22;14128;48.686;9.738;2022-09-03T23:16:34;15.40;1.40
316;DHT22;14128;48.686;9.738;2022-09-03T23:19:07;15.40;1.40
316;DHT22;14128;48.686;9.738;2022-09-03T23:21:44;15.40;1.40
316;DHT22;14128;48.686;9.738;2022-09-03T23:24:17;15.50;1.40
316;DHT22;14128;48.686;9.738;2022-09-03T23:26:48;15.50;1.40
316;DHT22;14128;48.686;9.738;2022-09-03T23:29:21;15.60;1.40
316;DHT22;14128;48.686;9.738;2022-09-03T23:31:52;15.60;1.40
316;DHT22;14128;48.686;9.738;2022-09-03T23:34:19;15.60;1.40
316;DHT22;14128;48.686;9.738;2022-09-03T23:37:06;15.60;1.40
316;DHT22;14128;48.686;9.738;2022-09-03T23:40:02;15.60;1.40
316;DHT22;14128;48.686;9.738;2022-09-03T23:42:42;15.60;1.40
316;DHT22;14128;48.686;9.738;2022-09-03T23:45:18;15.60;1.40
316;DHT22;14128;48.686;9.738;2022-09-03T23:47:53;15.60;1.40
316;DHT22;14128;48.686;9.738;2022-09-03T23:50:30;15.60;1.40
316;DHT22;14128;48.686;9.738;2022-09-03T23:53:22;15.60;1.40
316;DHT22;14128;48.686;9.738;2022-09-03T23:56:05;15.60;1.40
316;DHT22;14128;48.686;9.738;2022-09-03T23:58:45;15.60;1.40
